Gillette, WY (82716)

6:43 PM MDT on July 28, 2016 (GMT -0600)
Gillette-Campbell County | | Change Station

Elev 4364 ft 44.34 °N, 105.54 °W | Updated 50 minutes ago

Partly Cloudy
Partly Cloudy
77 °F
Feels Like 77 °F
N
13
Wind Variable Wind from North

Today
High -- | Low -- °F
--% Chance of Precip.
Yesterday
High -- | Low -- °F
Precip. -- in
Pressure 30.04 in
Visibility 10.0 miles
Clouds Few 12000 ft
Dew Point 52 °F
Humidity 42%
Rainfall 0.30 in
Snow Depth Not available.
5:45 AM 8:32 PM
Waning Crescent, 27% visible
METAR KGCC 282353Z AUTO 01011KT 10SM FEW120 25/11 A3017 RMK AO2 SLP173 T02500111 10256 20200 55006
Pressure 30.04 in
Visibility 10.0 miles
Clouds Few 12000 ft
Dew Point 52 °F
Humidity 42%
Rainfall 0.30 in
Snow Depth Not available.
5:45 AM 8:32 PM
Waning Crescent, 27% visible
METAR KGCC 282353Z AUTO 01011KT 10SM FEW120 25/11 A3017 RMK AO2 SLP173 T02500111 10256 20200 55006

10-Day Weather Forecast

Almanac

Astronomy

Jul. 28, 2016 Rise Set
Actual Time
Civil Twilight
Nautical Twilight
Astronomical Twilight
Moon
Length of Visible Light
Length of Day
Tomorrow will be .
, % of the Moon is Illuminated

Today's Extremes

State Highs State Lows

Community

WunderPhotos

Upload Photos

1,928,240 photos uploaded!

WunderBlog® & News

Nearby

Air Quality

  Air Quality AQ Index Pollutant
Not available.

Snow Depth

Station Depth Elevation

Earthquake Activity

City Distance Mag. Time & Date
Minimum magnitude displayed is 2.5.

Coastal Water Temperatures

Place Temperature

Stations

Nearby Weather Stations

Station Location Temp. Windchill Dew Point Humidity Wind Precip. Elev Updated Type
                   

Watches & Warnings

There are currently no watches in effect.